DIRECCIÓN GENERAL DE AERONÁUTICA CIVIL
DIRECCIÓN METEOROLÓGICA DE CHILE
INFORMACIÓN METAR Y TAF

FIR PUERTO MONTT

Estación: SCTC
METAR SCTC 210700Z 25002KT 9999 BKN012 12/11 Q1021=

TAF SCTC 210410Z 2106/2206 VRB01KT 9999 SCT025 TN07/2110Z TX19/2119Z BECMG 2107/2109 5000 BR BKN010 PROB40 TEMPO 0500 FG OVC002 BECMG 2114 /2116 23008KT 9999 NSW FEW020 BECMG 2200/2202 VRB02KT SCT020=

Estación: SCVD
METAR SCVD 202200Z 12003KT 9999 SCT030 BKN070 15/11 Q1019=

TAF SCVD 201650Z 2018/2106 VRB02KT 9999 SCT035 TX17/2019Z TN13/2106Z BECMG 2020/2022 27005KT BKN045 PROB30 TEMPO 2022/2102 34007KT 6000 DZ OVC009 BECMG 2102/2104 VRB02KT 2000 BR VV///=

Estación: SCJO
METAR SCJO 202200Z 00000KT 9999 BKN025 13/10 Q1020=

TAF SCJO 201650Z 2018/2106 VRB02KT 9999 SCT030 BKN080 TX16/2019Z TN10 /2106Z BECMG 2022/2100 35005KT 6000 -RA OVC010 BECMG 2104/2106 16005KT 9999 BKN015=

Estación: SCTE
METAR SCTE 210700Z VRB01KT 9999 OVC015 10/09 Q1022 NOSIG=

TAF SCTE 210411Z 2106/2206 14003KT 9999 BKN015 TN07/2110Z TX15/2119Z TEMPO 2109/2112 VRB02KT 1000 BR BCFG SCT002 BKN030 BECMG 2112/2113 SCT020 BKN040 BECMG 2114/2116 SCT030=

Estación: SCON
METAR SCON 210700Z AUTO 05003KT 020V080 9999 ///046 10/// Q1022=

TAF SCON 201650Z 2018/2106 35008KT 4000 -RA OVC009 TX13/2018Z TN09/ 2106Z BECMG 2019/2021 9999 BKN015 BECMG 2101/2103 VRB02KT=

Estación: SCTN
METAR SCTN NIL=

TAF SCTN NIL=

Estación: SCFT
METAR SCFT 210700Z AUTO VRB01KT 8000 06/05 Q1023=

TAF SCFT NIL=

Estación: SCAP
METAR SCAP 210700Z AUTO 07001KT CAVOK 07/05 Q1028=

TAF SCAP NIL=

Estación: SCMK
METAR SCMK 191600Z 05008KT 9999 FEW015 BKN040 11/// Q1023=

TAF SCMK 201650Z 2018/2106 03010KT 7000 -DZ SCT007 OVC015 TX12/2019Z TN09/2106Z=

Estación: SCAS
METAR SCAS 172000Z 07006KT 9999 -RA SCT023 BKN033 OVC053 07/06 Q1008=

TAF SCAS NIL=

Estación: SCCY
METAR SCCY 210000Z 32002KT 9999 BKN040 06/M00 Q1019=

TAF SCCY 201650Z 2018/2106 VRB02KT 6000 SHRA OVC025 TX11/2018Z TN08/ 2106Z BECMG 2100/2102 4000 -DZ OVC009=

Estación: SCBA
METAR SCBA 210700Z AUTO VRB01KT 9999 FEW009 BKN010 OVC013 01/M00 Q1020=

TAF SCBA 210412Z 2106/2206 31007KT 9999 SCT040 TNM02/2107Z TX12/ 2119Z PROB40 TEMPO 2109/2114 7000 -SHRA BKN030 BECMG 2114/2116 SCT035 =

Estación: SCCC
METAR SCCC 172000Z 28025G35KT 9000 RESH OVC030 09/03 Q1001=

TAF SCCC CECF 7687=

Estación: SCHR
METAR SCHR 172000Z 25006KT 9000 RA OVC020 06/04 Q0997=

TAF SCHR 181115Z 1812/1900 29007KT 9000 -SHRA BKN035 TN03/1812Z TX08/1816Z BECMG 1812/1814 26005KT 9999 FEW035=


Volver